sensor_id;sensor_type;location;lat;lon;timestamp;P1;durP1;ratioP1;P2;durP2;ratioP2
72728;SDS011;60843;52.062;4.508;2023-09-19T00:00:30;8.70;;;0.90;;
72728;SDS011;60843;52.062;4.508;2023-09-19T00:02:56;6.28;;;0.73;;
72728;SDS011;60843;52.062;4.508;2023-09-19T00:05:22;5.18;;;0.77;;
72728;SDS011;60843;52.062;4.508;2023-09-19T00:07:52;4.60;;;0.77;;
72728;SDS011;60843;52.062;4.508;2023-09-19T00:10:23;5.43;;;1.13;;
72728;SDS011;60843;52.062;4.508;2023-09-19T00:13:00;9.20;;;0.90;;
72728;SDS011;60843;52.062;4.508;2023-09-19T00:15:42;5.78;;;0.90;;
72728;SDS011;60843;52.062;4.508;2023-09-19T00:18:13;3.08;;;0.93;;
72728;SDS011;60843;52.062;4.508;2023-09-19T00:20:40;10.07;;;0.90;;
72728;SDS011;60843;52.062;4.508;2023-09-19T00:23:07;5.32;;;0.80;;
72728;SDS011;60843;52.062;4.508;2023-09-19T00:25:33;3.47;;;0.73;;
72728;SDS011;60843;52.062;4.508;2023-09-19T00:28:03;10.38;;;0.90;;
72728;SDS011;60843;52.062;4.508;2023-09-19T00:30:30;6.88;;;0.88;;
72728;SDS011;60843;52.062;4.508;2023-09-19T00:32:56;3.83;;;0.88;;
72728;SDS011;60843;52.062;4.508;2023-09-19T00:35:22;6.88;;;0.73;;
72728;SDS011;60843;52.062;4.508;2023-09-19T00:37:49;3.55;;;0.70;;
72728;SDS011;60843;52.062;4.508;2023-09-19T00:40:14;3.53;;;0.60;;
72728;SDS011;60843;52.062;4.508;2023-09-19T00:42:47;4.00;;;0.85;;
72728;SDS011;60843;52.062;4.508;2023-09-19T00:45:14;9.13;;;0.90;;
72728;SDS011;60843;52.062;4.508;2023-09-19T00:47:41;14.15;;;1.42;;
72728;SDS011;60843;52.062;4.508;2023-09-19T00:52:38;6.68;;;1.00;;
72728;SDS011;60843;52.062;4.508;2023-09-19T00:55:05;4.55;;;0.60;;
72728;SDS011;60843;52.062;4.508;2023-09-19T00:57:31;5.00;;;1.13;;
72728;SDS011;60843;52.062;4.508;2023-09-19T00:59:58;11.68;;;1.95;;
72728;SDS011;60843;52.062;4.508;2023-09-19T01:02:24;6.45;;;1.33;;
72728;SDS011;60843;52.062;4.508;2023-09-19T01:04:52;6.32;;;0.90;;
72728;SDS011;60843;52.062;4.508;2023-09-19T01:07:18;6.57;;;0.70;;
72728;SDS011;60843;52.062;4.508;2023-09-19T01:09:44;4.50;;;0.90;;
72728;SDS011;60843;52.062;4.508;2023-09-19T01:12:09;9.25;;;1.05;;
72728;SDS011;60843;52.062;4.508;2023-09-19T01:14:55;4.97;;;1.10;;
72728;SDS011;60843;52.062;4.508;2023-09-19T01:17:39;5.70;;;0.90;;
72728;SDS011;60843;52.062;4.508;2023-09-19T01:20:23;6.25;;;0.70;;
72728;SDS011;60843;52.062;4.508;2023-09-19T01:22:56;3.20;;;0.98;;
72728;SDS011;60843;52.062;4.508;2023-09-19T01:29:01;12.15;;;1.20;;
72728;SDS011;60843;52.062;4.508;2023-09-19T01:31:45;3.70;;;0.80;;
72728;SDS011;60843;52.062;4.508;2023-09-19T01:34:10;7.20;;;0.77;;
72728;SDS011;60843;52.062;4.508;2023-09-19T01:36:36;9.27;;;1.20;;
72728;SDS011;60843;52.062;4.508;2023-09-19T01:39:07;8.90;;;1.35;;
72728;SDS011;60843;52.062;4.508;2023-09-19T01:44:06;5.30;;;1.20;;
72728;SDS011;60843;52.062;4.508;2023-09-19T01:54:33;6.28;;;0.95;;
72728;SDS011;60843;52.062;4.508;2023-09-19T02:00:01;5.85;;;0.90;;
72728;SDS011;60843;52.062;4.508;2023-09-19T02:02:38;5.03;;;0.95;;
72728;SDS011;60843;52.062;4.508;2023-09-19T02:05:05;7.32;;;1.23;;
72728;SDS011;60843;52.062;4.508;2023-09-19T02:07:31;6.10;;;1.15;;
72728;SDS011;60843;52.062;4.508;2023-09-19T02:10:00;5.97;;;0.98;;
72728;SDS011;60843;52.062;4.508;2023-09-19T02:12:26;8.05;;;0.93;;
72728;SDS011;60843;52.062;4.508;2023-09-19T02:14:52;2.97;;;0.70;;
72728;SDS011;60843;52.062;4.508;2023-09-19T02:17:18;9.63;;;1.17;;
72728;SDS011;60843;52.062;4.508;2023-09-19T02:19:44;9.10;;;1.08;;
72728;SDS011;60843;52.062;4.508;2023-09-19T02:22:10;6.07;;;0.90;;
72728;SDS011;60843;52.062;4.508;2023-09-19T02:24:36;3.72;;;0.60;;
72728;SDS011;60843;52.062;4.508;2023-09-19T02:27:03;6.07;;;0.77;;
72728;SDS011;60843;52.062;4.508;2023-09-19T02:29:31;6.22;;;1.10;;
72728;SDS011;60843;52.062;4.508;2023-09-19T02:31:57;6.82;;;1.42;;
72728;SDS011;60843;52.062;4.508;2023-09-19T02:34:22;8.88;;;1.02;;
72728;SDS011;60843;52.062;4.508;2023-09-19T02:36:48;6.70;;;1.10;;
72728;SDS011;60843;52.062;4.508;2023-09-19T02:39:14;6.93;;;0.90;;
72728;SDS011;60843;52.062;4.508;2023-09-19T02:41:39;6.25;;;0.93;;
72728;SDS011;60843;52.062;4.508;2023-09-19T02:44:07;9.27;;;1.15;;
72728;SDS011;60843;52.062;4.508;2023-09-19T02:46:33;2.13;;;0.75;;
72728;SDS011;60843;52.062;4.508;2023-09-19T02:49:01;7.15;;;1.33;;
72728;SDS011;60843;52.062;4.508;2023-09-19T02:51:27;7.00;;;0.93;;
72728;SDS011;60843;52.062;4.508;2023-09-19T02:53:52;6.93;;;0.90;;
72728;SDS011;60843;52.062;4.508;2023-09-19T02:56:18;14.00;;;1.15;;
72728;SDS011;60843;52.062;4.508;2023-09-19T02:58:43;5.80;;;0.77;;
72728;SDS011;60843;52.062;4.508;2023-09-19T03:01:12;6.80;;;0.80;;
72728;SDS011;60843;52.062;4.508;2023-09-19T03:03:37;2.13;;;0.50;;
72728;SDS011;60843;52.062;4.508;2023-09-19T03:06:04;5.85;;;0.95;;
72728;SDS011;60843;52.062;4.508;2023-09-19T03:08:34;4.35;;;0.70;;
72728;SDS011;60843;52.062;4.508;2023-09-19T03:11:04;4.95;;;0.75;;
72728;SDS011;60843;52.062;4.508;2023-09-19T03:13:31;6.70;;;0.73;;
72728;SDS011;60843;52.062;4.508;2023-09-19T03:15:57;7.78;;;1.40;;
72728;SDS011;60843;52.062;4.508;2023-09-19T03:18:26;6.47;;;0.93;;
72728;SDS011;60843;52.062;4.508;2023-09-19T03:20:55;6.90;;;0.60;;
72728;SDS011;60843;52.062;4.508;2023-09-19T03:23:21;1.85;;;0.63;;
72728;SDS011;60843;52.062;4.508;2023-09-19T03:25:46;2.88;;;0.70;;
72728;SDS011;60843;52.062;4.508;2023-09-19T03:28:12;6.10;;;0.80;;
72728;SDS011;60843;52.062;4.508;2023-09-19T03:30:38;6.18;;;0.68;;
72728;SDS011;60843;52.062;4.508;2023-09-19T03:33:04;8.85;;;0.98;;
72728;SDS011;60843;52.062;4.508;2023-09-19T03:35:30;7.25;;;0.80;;
72728;SDS011;60843;52.062;4.508;2023-09-19T03:37:56;6.75;;;0.70;;
72728;SDS011;60843;52.062;4.508;2023-09-19T03:40:21;5.97;;;0.60;;
72728;SDS011;60843;52.062;4.508;2023-09-19T03:42:48;6.00;;;0.65;;
72728;SDS011;60843;52.062;4.508;2023-09-19T03:45:13;8.07;;;1.58;;
72728;SDS011;60843;52.062;4.508;2023-09-19T03:47:39;4.80;;;0.88;;
72728;SDS011;60843;52.062;4.508;2023-09-19T03:50:05;6.70;;;0.98;;
72728;SDS011;60843;52.062;4.508;2023-09-19T03:52:36;3.15;;;0.65;;
72728;SDS011;60843;52.062;4.508;2023-09-19T03:55:01;9.00;;;2.05;;
72728;SDS011;60843;52.062;4.508;2023-09-19T03:57:30;9.13;;;0.93;;
72728;SDS011;60843;52.062;4.508;2023-09-19T03:59:56;2.92;;;0.60;;
72728;SDS011;60843;52.062;4.508;2023-09-19T04:02:22;8.05;;;1.05;;
72728;SDS011;60843;52.062;4.508;2023-09-19T04:04:49;5.28;;;0.93;;
72728;SDS011;60843;52.062;4.508;2023-09-19T04:07:15;5.93;;;0.68;;
72728;SDS011;60843;52.062;4.508;2023-09-19T04:09:40;7.93;;;0.70;;
72728;SDS011;60843;52.062;4.508;2023-09-19T04:12:06;2.67;;;0.70;;
72728;SDS011;60843;52.062;4.508;2023-09-19T04:14:34;2.65;;;0.70;;
72728;SDS011;60843;52.062;4.508;2023-09-19T04:16:59;8.32;;;0.80;;
72728;SDS011;60843;52.062;4.508;2023-09-19T04:19:25;4.75;;;0.60;;
72728;SDS011;60843;52.062;4.508;2023-09-19T04:21:51;4.85;;;0.70;;
72728;SDS011;60843;52.062;4.508;2023-09-19T04:24:16;6.75;;;1.10;;
72728;SDS011;60843;52.062;4.508;2023-09-19T04:26:44;6.22;;;0.73;;
72728;SDS011;60843;52.062;4.508;2023-09-19T04:29:10;4.28;;;1.42;;
72728;SDS011;60843;52.062;4.508;2023-09-19T04:31:36;6.90;;;0.98;;
72728;SDS011;60843;52.062;4.508;2023-09-19T04:34:03;7.20;;;1.02;;
72728;SDS011;60843;52.062;4.508;2023-09-19T04:36:29;3.58;;;0.60;;
72728;SDS011;60843;52.062;4.508;2023-09-19T04:38:55;5.28;;;0.90;;
72728;SDS011;60843;52.062;4.508;2023-09-19T04:41:20;5.47;;;0.75;;
72728;SDS011;60843;52.062;4.508;2023-09-19T04:43:47;6.05;;;0.82;;
72728;SDS011;60843;52.062;4.508;2023-09-19T04:46:14;6.93;;;0.95;;
72728;SDS011;60843;52.062;4.508;2023-09-19T04:48:40;4.25;;;0.60;;
72728;SDS011;60843;52.062;4.508;2023-09-19T04:51:06;1.70;;;0.40;;
72728;SDS011;60843;52.062;4.508;2023-09-19T04:53:32;3.08;;;0.70;;
72728;SDS011;60843;52.062;4.508;2023-09-19T04:55:57;2.85;;;0.57;;
72728;SDS011;60843;52.062;4.508;2023-09-19T04:58:23;3.70;;;0.70;;
72728;SDS011;60843;52.062;4.508;2023-09-19T05:00:48;5.60;;;0.70;;
72728;SDS011;60843;52.062;4.508;2023-09-19T05:03:16;3.63;;;0.90;;
72728;SDS011;60843;52.062;4.508;2023-09-19T05:05:42;4.45;;;0.60;;
72728;SDS011;60843;52.062;4.508;2023-09-19T05:08:07;3.97;;;0.63;;
72728;SDS011;60843;52.062;4.508;2023-09-19T05:10:34;6.35;;;0.82;;
72728;SDS011;60843;52.062;4.508;2023-09-19T05:13:03;5.95;;;0.73;;
72728;SDS011;60843;52.062;4.508;2023-09-19T05:15:29;5.20;;;1.17;;
72728;SDS011;60843;52.062;4.508;2023-09-19T05:17:55;4.85;;;0.82;;
72728;SDS011;60843;52.062;4.508;2023-09-19T05:20:21;3.65;;;0.85;;
72728;SDS011;60843;52.062;4.508;2023-09-19T05:23:01;8.23;;;0.95;;
72728;SDS011;60843;52.062;4.508;2023-09-19T05:25:31;6.82;;;0.85;;
72728;SDS011;60843;52.062;4.508;2023-09-19T05:27:57;2.47;;;0.68;;
72728;SDS011;60843;52.062;4.508;2023-09-19T05:30:24;7.55;;;0.82;;
72728;SDS011;60843;52.062;4.508;2023-09-19T05:32:52;9.88;;;0.95;;
72728;SDS011;60843;52.062;4.508;2023-09-19T05:35:19;5.68;;;0.85;;
72728;SDS011;60843;52.062;4.508;2023-09-19T05:37:46;12.50;;;1.67;;
72728;SDS011;60843;52.062;4.508;2023-09-19T05:40:14;7.25;;;1.05;;
72728;SDS011;60843;52.062;4.508;2023-09-19T05:42:41;4.28;;;0.82;;
72728;SDS011;60843;52.062;4.508;2023-09-19T05:45:09;6.47;;;1.17;;
72728;SDS011;60843;52.062;4.508;2023-09-19T05:47:38;7.15;;;1.65;;
72728;SDS011;60843;52.062;4.508;2023-09-19T05:50:09;5.50;;;1.70;;
72728;SDS011;60843;52.062;4.508;2023-09-19T05:52:35;10.70;;;1.15;;
72728;SDS011;60843;52.062;4.508;2023-09-19T05:55:03;4.25;;;1.02;;
72728;SDS011;60843;52.062;4.508;2023-09-19T05:57:35;5.18;;;0.77;;
72728;SDS011;60843;52.062;4.508;2023-09-19T06:00:00;8.80;;;1.63;;
72728;SDS011;60843;52.062;4.508;2023-09-19T06:02:26;5.85;;;1.15;;
72728;SDS011;60843;52.062;4.508;2023-09-19T06:04:54;8.48;;;1.40;;
72728;SDS011;60843;52.062;4.508;2023-09-19T06:07:21;9.82;;;1.45;;
72728;SDS011;60843;52.062;4.508;2023-09-19T06:09:51;6.50;;;1.40;;
72728;SDS011;60843;52.062;4.508;2023-09-19T06:12:16;4.85;;;0.90;;
72728;SDS011;60843;52.062;4.508;2023-09-19T06:14:42;16.58;;;1.90;;
72728;SDS011;60843;52.062;4.508;2023-09-19T06:17:08;7.70;;;1.42;;
72728;SDS011;60843;52.062;4.508;2023-09-19T06:19:34;6.43;;;1.23;;
72728;SDS011;60843;52.062;4.508;2023-09-19T06:21:59;10.50;;;1.17;;
72728;SDS011;60843;52.062;4.508;2023-09-19T06:24:25;7.80;;;1.05;;
72728;SDS011;60843;52.062;4.508;2023-09-19T06:26:50;5.90;;;0.93;;
72728;SDS011;60843;52.062;4.508;2023-09-19T06:29:18;5.57;;;1.00;;
72728;SDS011;60843;52.062;4.508;2023-09-19T06:31:45;9.80;;;1.05;;
72728;SDS011;60843;52.062;4.508;2023-09-19T06:34:12;6.88;;;1.25;;
72728;SDS011;60843;52.062;4.508;2023-09-19T06:36:40;5.20;;;1.10;;
72728;SDS011;60843;52.062;4.508;2023-09-19T06:39:06;7.55;;;1.00;;
72728;SDS011;60843;52.062;4.508;2023-09-19T06:41:36;6.43;;;1.35;;
72728;SDS011;60843;52.062;4.508;2023-09-19T06:44:04;6.60;;;1.35;;
72728;SDS011;60843;52.062;4.508;2023-09-19T06:46:30;5.30;;;0.93;;
72728;SDS011;60843;52.062;4.508;2023-09-19T06:49:00;5.55;;;0.95;;
72728;SDS011;60843;52.062;4.508;2023-09-19T06:51:31;6.65;;;1.27;;
72728;SDS011;60843;52.062;4.508;2023-09-19T06:54:01;9.80;;;1.10;;
72728;SDS011;60843;52.062;4.508;2023-09-19T06:56:27;6.72;;;1.20;;
72728;SDS011;60843;52.062;4.508;2023-09-19T06:58:53;7.00;;;1.05;;
72728;SDS011;60843;52.062;4.508;2023-09-19T07:01:18;6.22;;;1.17;;
72728;SDS011;60843;52.062;4.508;2023-09-19T07:03:44;3.85;;;0.98;;
72728;SDS011;60843;52.062;4.508;2023-09-19T07:06:10;7.95;;;1.20;;
72728;SDS011;60843;52.062;4.508;2023-09-19T07:08:36;4.38;;;1.05;;
72728;SDS011;60843;52.062;4.508;2023-09-19T07:11:03;8.18;;;1.25;;
72728;SDS011;60843;52.062;4.508;2023-09-19T07:13:31;3.25;;;0.88;;
72728;SDS011;60843;52.062;4.508;2023-09-19T07:15:58;7.10;;;1.75;;
72728;SDS011;60843;52.062;4.508;2023-09-19T07:18:24;9.90;;;1.25;;
72728;SDS011;60843;52.062;4.508;2023-09-19T07:20:50;8.80;;;1.17;;
72728;SDS011;60843;52.062;4.508;2023-09-19T07:23:20;7.32;;;1.50;;
72728;SDS011;60843;52.062;4.508;2023-09-19T07:25:48;11.23;;;1.85;;
72728;SDS011;60843;52.062;4.508;2023-09-19T07:28:14;5.13;;;1.08;;
72728;SDS011;60843;52.062;4.508;2023-09-19T07:30:40;8.65;;;1.60;;
72728;SDS011;60843;52.062;4.508;2023-09-19T07:33:07;11.27;;;2.10;;
72728;SDS011;60843;52.062;4.508;2023-09-19T07:35:32;10.57;;;1.40;;
72728;SDS011;60843;52.062;4.508;2023-09-19T07:37:58;9.25;;;1.80;;
72728;SDS011;60843;52.062;4.508;2023-09-19T07:42:53;13.38;;;1.35;;
72728;SDS011;60843;52.062;4.508;2023-09-19T07:45:21;5.50;;;1.20;;
72728;SDS011;60843;52.062;4.508;2023-09-19T07:47:48;5.57;;;1.23;;
72728;SDS011;60843;52.062;4.508;2023-09-19T07:50:14;6.88;;;1.00;;
72728;SDS011;60843;52.062;4.508;2023-09-19T07:52:45;7.72;;;1.88;;
72728;SDS011;60843;52.062;4.508;2023-09-19T07:55:11;8.63;;;1.45;;
72728;SDS011;60843;52.062;4.508;2023-09-19T07:57:40;7.38;;;1.30;;
72728;SDS011;60843;52.062;4.508;2023-09-19T08:00:07;10.43;;;1.50;;
72728;SDS011;60843;52.062;4.508;2023-09-19T08:02:35;10.57;;;1.33;;
72728;SDS011;60843;52.062;4.508;2023-09-19T08:07:32;9.35;;;1.50;;
72728;SDS011;60843;52.062;4.508;2023-09-19T08:09:57;7.38;;;1.38;;
72728;SDS011;60843;52.062;4.508;2023-09-19T08:12:24;7.15;;;1.50;;
72728;SDS011;60843;52.062;4.508;2023-09-19T08:14:49;7.68;;;1.25;;
72728;SDS011;60843;52.062;4.508;2023-09-19T08:17:15;10.93;;;1.67;;
72728;SDS011;60843;52.062;4.508;2023-09-19T08:19:41;6.10;;;1.17;;
72728;SDS011;60843;52.062;4.508;2023-09-19T08:22:10;9.43;;;1.20;;
72728;SDS011;60843;52.062;4.508;2023-09-19T08:24:35;5.25;;;1.23;;
72728;SDS011;60843;52.062;4.508;2023-09-19T08:27:03;7.30;;;1.58;;
72728;SDS011;60843;52.062;4.508;2023-09-19T08:31:55;8.88;;;1.30;;
72728;SDS011;60843;52.062;4.508;2023-09-19T08:34:24;7.05;;;1.00;;
72728;SDS011;60843;52.062;4.508;2023-09-19T08:36:54;9.95;;;1.20;;
72728;SDS011;60843;52.062;4.508;2023-09-19T08:39:22;10.95;;;1.40;;
72728;SDS011;60843;52.062;4.508;2023-09-19T08:41:48;6.32;;;0.90;;
72728;SDS011;60843;52.062;4.508;2023-09-19T08:44:14;7.63;;;1.35;;
72728;SDS011;60843;52.062;4.508;2023-09-19T08:46:41;8.10;;;1.27;;
72728;SDS011;60843;52.062;4.508;2023-09-19T08:49:33;6.78;;;1.02;;
72728;SDS011;60843;52.062;4.508;2023-09-19T08:52:05;4.93;;;0.77;;
72728;SDS011;60843;52.062;4.508;2023-09-19T08:54:37;9.38;;;1.35;;
72728;SDS011;60843;52.062;4.508;2023-09-19T08:57:05;8.57;;;1.30;;
72728;SDS011;60843;52.062;4.508;2023-09-19T08:59:37;8.23;;;1.30;;
72728;SDS011;60843;52.062;4.508;2023-09-19T09:02:09;10.00;;;1.40;;
72728;SDS011;60843;52.062;4.508;2023-09-19T09:04:38;10.30;;;1.30;;
72728;SDS011;60843;52.062;4.508;2023-09-19T09:07:12;10.63;;;1.33;;
72728;SDS011;60843;52.062;4.508;2023-09-19T09:09:38;7.60;;;1.33;;
72728;SDS011;60843;52.062;4.508;2023-09-19T09:12:08;9.45;;;1.40;;
72728;SDS011;60843;52.062;4.508;2023-09-19T09:14:35;10.18;;;1.35;;
72728;SDS011;60843;52.062;4.508;2023-09-19T09:17:01;15.00;;;2.13;;
72728;SDS011;60843;52.062;4.508;2023-09-19T09:19:27;16.67;;;1.73;;
72728;SDS011;60843;52.062;4.508;2023-09-19T09:21:53;7.22;;;1.77;;
72728;SDS011;60843;52.062;4.508;2023-09-19T09:24:28;9.82;;;1.65;;
72728;SDS011;60843;52.062;4.508;2023-09-19T09:26:54;10.10;;;2.10;;
72728;SDS011;60843;52.062;4.508;2023-09-19T09:32:30;6.75;;;1.50;;
72728;SDS011;60843;52.062;4.508;2023-09-19T09:34:59;4.47;;;1.08;;
72728;SDS011;60843;52.062;4.508;2023-09-19T09:37:26;8.40;;;1.45;;
72728;SDS011;60843;52.062;4.508;2023-09-19T09:42:30;6.13;;;1.40;;
72728;SDS011;60843;52.062;4.508;2023-09-19T09:47:41;5.80;;;1.00;;
72728;SDS011;60843;52.062;4.508;2023-09-19T09:50:22;9.73;;;1.70;;
72728;SDS011;60843;52.062;4.508;2023-09-19T09:52:54;6.60;;;1.13;;
72728;SDS011;60843;52.062;4.508;2023-09-19T09:55:27;9.30;;;1.42;;
72728;SDS011;60843;52.062;4.508;2023-09-19T09:58:15;8.00;;;1.15;;
72728;SDS011;60843;52.062;4.508;2023-09-19T10:01:05;6.97;;;1.20;;
72728;SDS011;60843;52.062;4.508;2023-09-19T10:03:40;8.32;;;1.58;;
72728;SDS011;60843;52.062;4.508;2023-09-19T10:06:13;4.45;;;0.82;;
72728;SDS011;60843;52.062;4.508;2023-09-19T10:09:01;6.90;;;0.90;;
72728;SDS011;60843;52.062;4.508;2023-09-19T10:11:45;6.63;;;0.75;;
72728;SDS011;60843;52.062;4.508;2023-09-19T10:14:15;8.02;;;1.27;;
72728;SDS011;60843;52.062;4.508;2023-09-19T10:16:48;7.03;;;0.80;;
72728;SDS011;60843;52.062;4.508;2023-09-19T10:19:59;7.15;;;1.45;;
72728;SDS011;60843;52.062;4.508;2023-09-19T10:22:04;7.28;;;1.73;;
72728;SDS011;60843;52.062;4.508;2023-09-19T10:24:34;7.93;;;1.30;;
72728;SDS011;60843;52.062;4.508;2023-09-19T10:27:01;6.47;;;1.42;;
72728;SDS011;60843;52.062;4.508;2023-09-19T10:29:28;5.35;;;1.10;;
72728;SDS011;60843;52.062;4.508;2023-09-19T10:31:56;7.45;;;1.40;;
72728;SDS011;60843;52.062;4.508;2023-09-19T10:34:23;5.10;;;1.23;;
72728;SDS011;60843;52.062;4.508;2023-09-19T10:36:51;7.55;;;1.17;;
72728;SDS011;60843;52.062;4.508;2023-09-19T10:39:17;11.15;;;1.70;;
72728;SDS011;60843;52.062;4.508;2023-09-19T10:41:47;2.53;;;0.82;;
72728;SDS011;60843;52.062;4.508;2023-09-19T10:44:19;6.43;;;0.80;;
72728;SDS011;60843;52.062;4.508;2023-09-19T10:46:48;4.85;;;1.05;;
72728;SDS011;60843;52.062;4.508;2023-09-19T10:49:15;5.45;;;1.13;;
72728;SDS011;60843;52.062;4.508;2023-09-19T10:51:41;6.97;;;1.00;;
72728;SDS011;60843;52.062;4.508;2023-09-19T10:54:11;8.40;;;1.02;;
72728;SDS011;60843;52.062;4.508;2023-09-19T10:56:40;4.70;;;1.02;;
72728;SDS011;60843;52.062;4.508;2023-09-19T10:59:16;5.93;;;1.13;;
72728;SDS011;60843;52.062;4.508;2023-09-19T11:04:31;7.07;;;1.17;;
72728;SDS011;60843;52.062;4.508;2023-09-19T11:15:00;5.10;;;0.80;;
72728;SDS011;60843;52.062;4.508;2023-09-19T11:17:30;2.47;;;0.60;;
72728;SDS011;60843;52.062;4.508;2023-09-19T11:25:42;2.30;;;0.68;;
72728;SDS011;60843;52.062;4.508;2023-09-19T11:30:50;3.65;;;0.70;;
72728;SDS011;60843;52.062;4.508;2023-09-19T11:43:45;3.95;;;0.77;;
72728;SDS011;60843;52.062;4.508;2023-09-19T11:46:11;6.20;;;0.77;;
72728;SDS011;60843;52.062;4.508;2023-09-19T11:48:41;4.68;;;0.50;;
72728;SDS011;60843;52.062;4.508;2023-09-19T11:51:10;7.22;;;1.00;;
72728;SDS011;60843;52.062;4.508;2023-09-19T11:53:44;4.43;;;1.00;;
72728;SDS011;60843;52.062;4.508;2023-09-19T11:56:16;6.20;;;0.65;;
72728;SDS011;60843;52.062;4.508;2023-09-19T11:58:49;4.70;;;1.00;;
72728;SDS011;60843;52.062;4.508;2023-09-19T12:01:25;4.47;;;0.75;;
72728;SDS011;60843;52.062;4.508;2023-09-19T12:03:55;2.50;;;0.68;;
72728;SDS011;60843;52.062;4.508;2023-09-19T12:06:23;7.10;;;0.80;;
72728;SDS011;60843;52.062;4.508;2023-09-19T12:08:49;2.38;;;0.55;;
72728;SDS011;60843;52.062;4.508;2023-09-19T12:11:16;6.72;;;1.58;;
72728;SDS011;60843;52.062;4.508;2023-09-19T12:13:43;3.83;;;0.70;;
72728;SDS011;60843;52.062;4.508;2023-09-19T12:18:46;3.75;;;0.80;;
72728;SDS011;60843;52.062;4.508;2023-09-19T12:24:04;5.50;;;0.77;;
72728;SDS011;60843;52.062;4.508;2023-09-19T12:26:30;3.00;;;0.60;;
72728;SDS011;60843;52.062;4.508;2023-09-19T12:29:03;2.92;;;0.85;;
72728;SDS011;60843;52.062;4.508;2023-09-19T12:31:30;3.40;;;0.85;;
72728;SDS011;60843;52.062;4.508;2023-09-19T12:34:01;3.63;;;0.82;;
72728;SDS011;60843;52.062;4.508;2023-09-19T12:36:26;10.43;;;1.92;;
72728;SDS011;60843;52.062;4.508;2023-09-19T12:38:56;3.25;;;0.73;;
72728;SDS011;60843;52.062;4.508;2023-09-19T12:41:24;4.82;;;0.75;;
72728;SDS011;60843;52.062;4.508;2023-09-19T12:43:51;5.32;;;1.00;;
72728;SDS011;60843;52.062;4.508;2023-09-19T12:46:20;1.85;;;0.52;;
72728;SDS011;60843;52.062;4.508;2023-09-19T12:48:51;3.28;;;0.82;;
72728;SDS011;60843;52.062;4.508;2023-09-19T12:51:47;9.13;;;0.57;;
72728;SDS011;60843;52.062;4.508;2023-09-19T12:54:17;6.50;;;1.00;;
72728;SDS011;60843;52.062;4.508;2023-09-19T12:56:48;4.15;;;1.13;;
72728;SDS011;60843;52.062;4.508;2023-09-19T12:59:15;6.10;;;1.10;;
72728;SDS011;60843;52.062;4.508;2023-09-19T13:01:41;4.38;;;1.00;;
72728;SDS011;60843;52.062;4.508;2023-09-19T13:04:16;3.20;;;0.80;;
72728;SDS011;60843;52.062;4.508;2023-09-19T13:06:53;6.38;;;0.93;;
72728;SDS011;60843;52.062;4.508;2023-09-19T13:09:20;3.30;;;0.85;;
72728;SDS011;60843;52.062;4.508;2023-09-19T13:11:50;4.97;;;1.02;;
72728;SDS011;60843;52.062;4.508;2023-09-19T13:22:00;4.75;;;1.00;;
72728;SDS011;60843;52.062;4.508;2023-09-19T13:24:26;5.57;;;1.38;;
72728;SDS011;60843;52.062;4.508;2023-09-19T13:26:53;5.90;;;0.80;;
72728;SDS011;60843;52.062;4.508;2023-09-19T13:29:19;5.93;;;0.95;;
72728;SDS011;60843;52.062;4.508;2023-09-19T13:31:46;5.97;;;1.05;;
72728;SDS011;60843;52.062;4.508;2023-09-19T13:34:12;2.35;;;0.80;;
72728;SDS011;60843;52.062;4.508;2023-09-19T13:36:40;9.13;;;1.20;;
72728;SDS011;60843;52.062;4.508;2023-09-19T13:39:07;7.55;;;0.98;;
72728;SDS011;60843;52.062;4.508;2023-09-19T13:41:34;4.68;;;1.10;;
72728;SDS011;60843;52.062;4.508;2023-09-19T13:44:02;9.95;;;1.00;;
72728;SDS011;60843;52.062;4.508;2023-09-19T13:46:29;4.32;;;1.05;;
72728;SDS011;60843;52.062;4.508;2023-09-19T13:48:58;6.07;;;1.42;;
72728;SDS011;60843;52.062;4.508;2023-09-19T13:51:25;4.25;;;0.90;;
72728;SDS011;60843;52.062;4.508;2023-09-19T13:53:51;5.15;;;0.98;;
72728;SDS011;60843;52.062;4.508;2023-09-19T13:56:16;4.00;;;0.80;;
72728;SDS011;60843;52.062;4.508;2023-09-19T13:58:42;6.28;;;1.15;;
72728;SDS011;60843;52.062;4.508;2023-09-19T14:01:08;8.18;;;1.30;;
72728;SDS011;60843;52.062;4.508;2023-09-19T14:03:38;5.60;;;1.50;;
72728;SDS011;60843;52.062;4.508;2023-09-19T14:06:05;7.45;;;1.45;;
72728;SDS011;60843;52.062;4.508;2023-09-19T14:08:31;2.83;;;0.75;;
72728;SDS011;60843;52.062;4.508;2023-09-19T14:10:58;6.25;;;1.80;;
72728;SDS011;60843;52.062;4.508;2023-09-19T14:13:24;6.47;;;1.20;;
72728;SDS011;60843;52.062;4.508;2023-09-19T14:15:50;7.93;;;1.27;;
72728;SDS011;60843;52.062;4.508;2023-09-19T14:18:16;4.00;;;0.85;;
72728;SDS011;60843;52.062;4.508;2023-09-19T14:20:43;5.78;;;1.35;;
72728;SDS011;60843;52.062;4.508;2023-09-19T14:23:09;5.95;;;1.25;;
72728;SDS011;60843;52.062;4.508;2023-09-19T14:25:35;5.38;;;1.15;;
72728;SDS011;60843;52.062;4.508;2023-09-19T14:28:01;3.60;;;1.00;;
72728;SDS011;60843;52.062;4.508;2023-09-19T14:30:30;5.18;;;1.38;;
72728;SDS011;60843;52.062;4.508;2023-09-19T14:32:57;9.85;;;1.40;;
72728;SDS011;60843;52.062;4.508;2023-09-19T14:35:23;6.13;;;1.25;;
72728;SDS011;60843;52.062;4.508;2023-09-19T14:37:48;4.40;;;1.33;;
72728;SDS011;60843;52.062;4.508;2023-09-19T14:40:14;4.85;;;1.00;;
72728;SDS011;60843;52.062;4.508;2023-09-19T14:42:43;6.93;;;1.50;;
72728;SDS011;60843;52.062;4.508;2023-09-19T14:45:10;5.65;;;1.15;;
72728;SDS011;60843;52.062;4.508;2023-09-19T14:47:36;5.95;;;1.52;;
72728;SDS011;60843;52.062;4.508;2023-09-19T14:50:02;6.55;;;1.55;;
72728;SDS011;60843;52.062;4.508;2023-09-19T14:52:32;5.88;;;0.93;;
72728;SDS011;60843;52.062;4.508;2023-09-19T14:54:58;8.38;;;1.20;;
72728;SDS011;60843;52.062;4.508;2023-09-19T14:57:24;6.20;;;1.67;;
72728;SDS011;60843;52.062;4.508;2023-09-19T14:59:51;6.47;;;1.15;;
72728;SDS011;60843;52.062;4.508;2023-09-19T15:02:16;10.82;;;1.90;;
72728;SDS011;60843;52.062;4.508;2023-09-19T15:04:42;6.00;;;1.50;;
72728;SDS011;60843;52.062;4.508;2023-09-19T15:07:12;8.77;;;1.30;;
72728;SDS011;60843;52.062;4.508;2023-09-19T15:12:13;5.70;;;1.70;;
72728;SDS011;60843;52.062;4.508;2023-09-19T15:14:39;8.32;;;1.73;;
72728;SDS011;60843;52.062;4.508;2023-09-19T15:17:06;8.40;;;1.38;;
72728;SDS011;60843;52.062;4.508;2023-09-19T15:19:31;6.20;;;1.58;;
72728;SDS011;60843;52.062;4.508;2023-09-19T15:21:57;10.18;;;1.48;;
72728;SDS011;60843;52.062;4.508;2023-09-19T15:24:27;9.13;;;2.25;;
72728;SDS011;60843;52.062;4.508;2023-09-19T15:26:52;7.10;;;1.58;;
72728;SDS011;60843;52.062;4.508;2023-09-19T15:29:20;11.85;;;1.92;;
72728;SDS011;60843;52.062;4.508;2023-09-19T15:31:46;5.05;;;1.42;;
72728;SDS011;60843;52.062;4.508;2023-09-19T15:34:11;8.60;;;1.42;;
72728;SDS011;60843;52.062;4.508;2023-09-19T15:36:40;6.75;;;1.45;;
72728;SDS011;60843;52.062;4.508;2023-09-19T15:39:07;8.48;;;2.13;;
72728;SDS011;60843;52.062;4.508;2023-09-19T15:41:36;11.73;;;1.50;;
72728;SDS011;60843;52.062;4.508;2023-09-19T15:44:12;9.98;;;1.35;;
72728;SDS011;60843;52.062;4.508;2023-09-19T15:46:39;10.90;;;2.00;;
72728;SDS011;60843;52.062;4.508;2023-09-19T15:49:05;12.07;;;2.00;;
72728;SDS011;60843;52.062;4.508;2023-09-19T15:51:32;7.13;;;2.03;;
72728;SDS011;60843;52.062;4.508;2023-09-19T15:53:58;13.45;;;3.42;;
72728;SDS011;60843;52.062;4.508;2023-09-19T15:56:25;14.10;;;4.95;;
72728;SDS011;60843;52.062;4.508;2023-09-19T15:58:52;17.60;;;7.03;;
72728;SDS011;60843;52.062;4.508;2023-09-19T16:01:22;21.92;;;9.18;;
72728;SDS011;60843;52.062;4.508;2023-09-19T16:03:51;27.92;;;11.45;;
72728;SDS011;60843;52.062;4.508;2023-09-19T16:06:22;23.30;;;10.57;;
72728;SDS011;60843;52.062;4.508;2023-09-19T16:08:50;13.35;;;5.90;;
72728;SDS011;60843;52.062;4.508;2023-09-19T16:11:18;14.73;;;4.45;;